createdAt,value
2023-02-04T00:00:07.786Z,6.20
2023-02-04T00:02:34.736Z,6.00
2023-02-04T00:05:01.570Z,6.23
2023-02-04T00:07:28.234Z,6.33
2023-02-04T00:09:54.857Z,7.13
2023-02-04T00:12:21.758Z,9.37
2023-02-04T00:14:48.318Z,6.77
2023-02-04T00:17:14.925Z,5.57
2023-02-04T00:19:42.037Z,5.30
2023-02-04T00:22:09.105Z,5.87
2023-02-04T00:24:36.554Z,5.53
2023-02-04T00:27:03.974Z,5.73
2023-02-04T00:29:30.654Z,6.60
2023-02-04T00:31:57.950Z,5.73
2023-02-04T00:34:24.837Z,6.57
2023-02-04T00:36:51.494Z,6.93
2023-02-04T00:39:18.234Z,5.97
2023-02-04T00:41:45.089Z,6.10
2023-02-04T00:44:14.113Z,6.07
2023-02-04T00:46:42.596Z,6.53
2023-02-04T00:49:10.822Z,5.90
2023-02-04T00:51:39.924Z,5.37
2023-02-04T00:54:07.584Z,6.00
2023-02-04T00:56:35.078Z,5.93
2023-02-04T00:59:01.788Z,7.57
2023-02-04T01:01:28.706Z,5.97
2023-02-04T01:03:55.688Z,6.10
2023-02-04T01:06:22.316Z,5.20
2023-02-04T01:08:48.954Z,5.23
2023-02-04T01:11:15.708Z,6.73
2023-02-04T01:13:42.427Z,6.43
2023-02-04T01:16:09.319Z,6.13
2023-02-04T01:18:36.483Z,6.20
2023-02-04T01:21:03.293Z,5.57
2023-02-04T01:23:30.238Z,7.07
2023-02-04T01:25:57.040Z,7.77
2023-02-04T01:28:23.687Z,7.97
2023-02-04T01:30:50.604Z,7.10
2023-02-04T01:33:17.454Z,7.43
2023-02-04T01:35:44.329Z,5.93
2023-02-04T01:38:10.858Z,5.90
2023-02-04T01:40:37.611Z,5.43
2023-02-04T01:43:04.265Z,7.23
2023-02-04T01:45:33.668Z,7.13
2023-02-04T01:48:00.761Z,7.40
2023-02-04T01:50:28.335Z,6.73
2023-02-04T01:52:55.104Z,10.77
2023-02-04T01:55:25.833Z,6.70
2023-02-04T01:57:59.103Z,6.07
2023-02-04T02:00:28.835Z,6.40
2023-02-04T02:02:56.645Z,5.90
2023-02-04T02:05:33.007Z,6.27
2023-02-04T02:08:01.599Z,6.17
2023-02-04T02:10:28.677Z,6.63
2023-02-04T02:12:56.385Z,5.40
2023-02-04T02:15:23.717Z,5.90
2023-02-04T02:17:51.123Z,5.57
2023-02-04T02:20:21.414Z,5.70
2023-02-04T02:22:58.324Z,4.60
2023-02-04T02:25:25.205Z,6.37
2023-02-04T02:27:52.034Z,5.83
2023-02-04T02:30:19.919Z,5.40
2023-02-04T02:32:47.592Z,6.10
2023-02-04T02:35:15.084Z,5.33
2023-02-04T02:37:41.935Z,5.43
2023-02-04T02:40:09.329Z,6.33
2023-02-04T02:42:36.420Z,4.67
2023-02-04T02:45:11.443Z,5.60
2023-02-04T02:47:38.028Z,4.80
2023-02-04T02:50:05.229Z,5.23
2023-02-04T02:52:32.024Z,5.97
2023-02-04T02:54:58.628Z,5.93
2023-02-04T02:57:25.386Z,5.27
2023-02-04T02:59:52.023Z,6.10
2023-02-04T03:02:23.675Z,5.90
2023-02-04T03:04:55.112Z,5.87
2023-02-04T03:07:22.526Z,6.03
2023-02-04T03:09:49.547Z,4.97
2023-02-04T03:12:16.159Z,5.13
2023-02-04T03:14:42.799Z,5.43
2023-02-04T03:17:10.490Z,5.27
2023-02-04T03:19:38.041Z,6.37
2023-02-04T03:22:05.671Z,5.33
2023-02-04T03:24:33.441Z,6.63
2023-02-04T03:27:00.797Z,5.27
2023-02-04T03:29:29.681Z,5.37
2023-02-04T03:31:56.687Z,5.27
2023-02-04T03:34:23.341Z,5.17
2023-02-04T03:36:49.942Z,5.33
2023-02-04T03:39:16.604Z,5.27
2023-02-04T03:41:43.284Z,5.47
2023-02-04T03:44:09.932Z,5.33
2023-02-04T03:46:36.824Z,5.80
2023-02-04T03:49:03.452Z,5.60
2023-02-04T03:51:30.112Z,4.80
2023-02-04T03:53:56.960Z,5.17
2023-02-04T03:56:23.617Z,6.40
2023-02-04T03:58:50.243Z,5.23
2023-02-04T04:01:16.919Z,7.17
2023-02-04T04:03:43.583Z,5.67
2023-02-04T04:06:11.473Z,5.23
2023-02-04T04:08:38.977Z,5.40
2023-02-04T04:11:05.757Z,6.07
2023-02-04T04:13:32.443Z,6.13
2023-02-04T04:15:59.123Z,5.70
2023-02-04T04:18:25.719Z,6.07
2023-02-04T04:20:52.370Z,5.77
2023-02-04T04:23:19.427Z,5.33
2023-02-04T04:25:46.045Z,7.00
2023-02-04T04:28:12.709Z,5.97
2023-02-04T04:30:39.831Z,6.60
2023-02-04T04:33:06.411Z,6.03
2023-02-04T04:35:33.350Z,5.33
2023-02-04T04:38:00.031Z,5.30
2023-02-04T04:40:26.628Z,5.90
2023-02-04T04:42:53.336Z,5.00
2023-02-04T04:45:20.961Z,6.30
2023-02-04T04:47:47.955Z,5.63
2023-02-04T04:50:14.578Z,5.80
2023-02-04T04:52:41.347Z,5.60
2023-02-04T04:55:08.570Z,5.13
2023-02-04T04:57:35.199Z,5.13
2023-02-04T05:00:01.748Z,6.23
2023-02-04T05:02:28.410Z,5.57
2023-02-04T05:04:55.284Z,6.23
2023-02-04T05:07:21.960Z,5.63
2023-02-04T05:09:48.818Z,5.23
2023-02-04T05:12:15.451Z,5.67
2023-02-04T05:14:42.022Z,6.63
2023-02-04T05:17:08.741Z,5.50
2023-02-04T05:19:35.557Z,5.03
2023-02-04T05:22:02.103Z,5.67
2023-02-04T05:24:28.954Z,6.57
2023-02-04T05:26:56.033Z,6.27
2023-02-04T05:29:22.541Z,6.50
2023-02-04T05:31:49.166Z,5.83
2023-02-04T05:34:16.060Z,6.07
2023-02-04T05:36:43.016Z,6.10
2023-02-04T05:39:09.800Z,5.73
2023-02-04T05:41:36.618Z,4.80
2023-02-04T05:44:03.724Z,5.90
2023-02-04T05:46:30.322Z,5.83
2023-02-04T05:48:56.919Z,6.23
2023-02-04T05:51:23.740Z,6.23
2023-02-04T05:53:50.363Z,6.63
2023-02-04T05:56:16.854Z,5.73
2023-02-04T05:58:43.674Z,5.23
2023-02-04T06:01:10.479Z,5.33
2023-02-04T06:03:37.641Z,6.40
2023-02-04T06:06:04.551Z,5.77
2023-02-04T06:08:31.209Z,5.70
2023-02-04T06:10:57.847Z,4.80
2023-02-04T06:13:24.606Z,4.77
2023-02-04T06:15:51.245Z,6.00
2023-02-04T06:18:18.011Z,6.10
2023-02-04T06:20:44.533Z,6.10
2023-02-04T06:23:11.161Z,6.90
2023-02-04T06:25:37.975Z,5.87
2023-02-04T06:28:04.699Z,5.83
2023-02-04T06:30:31.844Z,5.47
2023-02-04T06:32:59.041Z,6.10
2023-02-04T06:35:26.029Z,5.83
2023-02-04T06:37:52.545Z,5.00
2023-02-04T06:40:19.352Z,5.40
2023-02-04T06:42:45.995Z,5.57
2023-02-04T06:45:12.625Z,6.70
2023-02-04T06:47:39.499Z,6.37
2023-02-04T06:50:06.702Z,6.67
2023-02-04T06:52:33.419Z,7.67
2023-02-04T06:55:00.109Z,6.10
2023-02-04T06:57:26.655Z,6.30
2023-02-04T06:59:53.182Z,6.53
2023-02-04T07:02:20.069Z,6.80
2023-02-04T07:04:47.814Z,5.90
2023-02-04T07:07:14.539Z,6.37
2023-02-04T07:09:41.280Z,5.27
2023-02-04T07:12:07.892Z,5.80
2023-02-04T07:14:34.642Z,6.03
2023-02-04T07:17:01.449Z,6.33
2023-02-04T07:19:28.047Z,5.33
2023-02-04T07:21:57.019Z,4.73
2023-02-04T07:24:24.249Z,5.33
2023-02-04T07:26:51.110Z,5.17
2023-02-04T07:29:25.127Z,5.37
2023-02-04T07:31:53.167Z,5.67
2023-02-04T07:34:20.004Z,6.03
2023-02-04T07:36:47.570Z,6.03
2023-02-04T07:39:14.364Z,5.23
2023-02-04T07:41:41.181Z,5.83
2023-02-04T07:44:07.900Z,5.83
2023-02-04T07:46:34.572Z,5.30
2023-02-04T07:49:01.311Z,5.57
2023-02-04T07:51:28.174Z,5.30
2023-02-04T07:53:56.484Z,5.47
2023-02-04T07:56:23.361Z,6.20
2023-02-04T07:58:50.056Z,5.60
2023-02-04T08:01:17.136Z,6.97
2023-02-04T08:03:43.942Z,7.30
2023-02-04T08:06:10.842Z,7.83
2023-02-04T08:08:37.618Z,6.23
2023-02-04T08:11:04.286Z,5.50
2023-02-04T08:13:30.944Z,5.83
2023-02-04T08:15:57.766Z,6.10
2023-02-04T08:18:25.279Z,5.83
2023-02-04T08:20:52.307Z,4.87
2023-02-04T08:23:19.126Z,5.63
2023-02-04T08:25:45.832Z,5.63
2023-02-04T08:28:12.538Z,5.93
2023-02-04T08:30:39.236Z,5.93
2023-02-04T08:33:06.229Z,5.80
2023-02-04T08:35:32.734Z,5.77
2023-02-04T08:37:59.250Z,6.40
2023-02-04T08:40:25.834Z,6.23
2023-02-04T08:42:52.463Z,6.70
2023-02-04T08:45:19.109Z,5.77
2023-02-04T08:47:46.077Z,6.43
2023-02-04T08:50:13.122Z,7.80
2023-02-04T08:52:39.690Z,7.13
2023-02-04T08:55:06.703Z,6.73
2023-02-04T08:57:35.043Z,7.23
2023-02-04T09:00:02.058Z,6.87
2023-02-04T09:02:28.790Z,6.70
2023-02-04T09:04:55.456Z,7.80
2023-02-04T09:07:22.520Z,7.73
2023-02-04T09:09:49.192Z,7.10
2023-02-04T09:12:15.993Z,6.70
2023-02-04T09:14:42.564Z,6.90
2023-02-04T09:17:09.215Z,5.97
2023-02-04T09:19:35.930Z,6.53
2023-02-04T09:22:02.513Z,6.83
2023-02-04T09:24:29.144Z,6.93
2023-02-04T09:26:55.812Z,7.97
2023-02-04T09:29:22.349Z,7.50
2023-02-04T09:31:49.269Z,6.60
2023-02-04T09:34:15.887Z,6.97
2023-02-04T09:36:42.496Z,7.97
2023-02-04T09:39:12.584Z,7.40
2023-02-04T09:41:40.197Z,6.70
2023-02-04T09:44:14.027Z,7.33
2023-02-04T09:46:43.755Z,7.10
2023-02-04T09:49:10.744Z,6.63
2023-02-04T09:51:37.538Z,6.43
2023-02-04T09:54:09.918Z,7.47
2023-02-04T09:56:36.692Z,6.83
2023-02-04T09:59:06.576Z,8.40
2023-02-04T10:01:33.227Z,8.43
2023-02-04T10:04:01.711Z,7.27
2023-02-04T10:06:28.611Z,6.73
2023-02-04T10:08:55.871Z,6.57
2023-02-04T10:11:24.088Z,7.17
2023-02-04T10:13:53.885Z,6.80
2023-02-04T10:16:22.539Z,7.20
2023-02-04T10:18:49.307Z,7.23
2023-02-04T10:21:24.866Z,7.87
2023-02-04T10:23:55.259Z,7.50
2023-02-04T10:26:22.916Z,6.73
2023-02-04T10:28:52.322Z,6.90
2023-02-04T10:31:37.771Z,6.43
2023-02-04T10:34:18.662Z,7.40
2023-02-04T10:36:47.598Z,6.77
2023-02-04T10:39:18.386Z,7.50
2023-02-04T10:41:49.603Z,7.53
2023-02-04T10:44:18.753Z,7.47
2023-02-04T10:46:45.457Z,6.60
2023-02-04T10:49:23.526Z,6.93
2023-02-04T10:51:52.813Z,6.73
2023-02-04T10:54:30.579Z,8.23
2023-02-04T10:57:15.411Z,6.33
2023-02-04T10:59:42.092Z,6.07
2023-02-04T11:02:30.676Z,7.43
2023-02-04T11:04:57.296Z,6.63
2023-02-04T11:07:24.685Z,6.63
2023-02-04T11:09:51.537Z,6.07
2023-02-04T11:12:37.360Z,6.73
2023-02-04T11:15:05.372Z,7.30
2023-02-04T11:17:33.497Z,6.20
2023-02-04T11:20:01.107Z,7.67
2023-02-04T11:22:45.171Z,7.20
2023-02-04T11:25:31.610Z,7.27
2023-02-04T11:27:58.559Z,5.50
2023-02-04T11:30:31.594Z,6.60
2023-02-04T11:33:24.119Z,7.50
2023-02-04T11:36:11.369Z,6.90
2023-02-04T11:38:38.901Z,6.57
2023-02-04T11:41:05.594Z,7.63
2023-02-04T11:43:36.429Z,7.13
2023-02-04T11:46:05.795Z,6.70
2023-02-04T11:48:32.757Z,6.90
2023-02-04T11:51:01.677Z,7.23
2023-02-04T11:53:32.568Z,7.07
2023-02-04T11:55:59.524Z,6.50
2023-02-04T11:58:26.620Z,6.17
2023-02-04T12:00:53.721Z,15.47
2023-02-04T12:03:32.146Z,7.93
2023-02-04T12:05:59.463Z,5.90
2023-02-04T12:08:31.850Z,6.40
2023-02-04T12:11:07.816Z,6.80
2023-02-04T12:13:34.946Z,6.67
2023-02-04T12:16:06.032Z,6.33
2023-02-04T12:18:34.064Z,6.27
2023-02-04T12:21:01.844Z,7.50
2023-02-04T12:23:29.707Z,13.60
2023-02-04T12:25:56.828Z,8.20
2023-02-04T12:28:23.698Z,7.30
2023-02-04T12:30:50.838Z,6.37
2023-02-04T12:33:17.587Z,7.23
2023-02-04T12:35:44.463Z,6.97
2023-02-04T12:38:11.168Z,8.17
2023-02-04T12:40:38.445Z,7.53
2023-02-04T12:43:05.137Z,7.77
2023-02-04T12:45:32.388Z,7.63
2023-02-04T12:47:59.504Z,8.20
2023-02-04T12:50:26.935Z,8.00
2023-02-04T12:52:55.677Z,7.83
2023-02-04T12:55:23.579Z,7.27
2023-02-04T12:57:50.491Z,8.33
2023-02-04T13:00:20.782Z,7.60
2023-02-04T13:02:48.148Z,28.13
2023-02-04T13:05:15.770Z,14.63
2023-02-04T13:07:42.515Z,8.23
2023-02-04T13:10:10.147Z,8.77
2023-02-04T13:12:36.922Z,6.73
2023-02-04T13:15:04.161Z,7.20
2023-02-04T13:17:30.928Z,7.40
2023-02-04T13:19:57.609Z,7.57
2023-02-04T13:22:24.193Z,8.10
2023-02-04T13:24:50.766Z,6.97
2023-02-04T13:27:17.409Z,8.00
2023-02-04T13:29:44.880Z,7.47
2023-02-04T13:32:11.571Z,7.13
2023-02-04T13:34:38.139Z,7.17
2023-02-04T13:37:04.793Z,8.50
2023-02-04T13:39:31.405Z,8.10
2023-02-04T13:41:58.134Z,8.10
2023-02-04T13:44:24.853Z,7.93
2023-02-04T13:46:52.098Z,8.03
2023-02-04T13:49:19.202Z,6.07
2023-02-04T13:51:46.005Z,8.67
2023-02-04T13:54:12.710Z,8.30
2023-02-04T13:56:41.356Z,8.33
2023-02-04T13:59:07.975Z,7.13
2023-02-04T14:01:34.548Z,8.40
2023-02-04T14:04:01.167Z,8.53
2023-02-04T14:06:34.478Z,7.53
2023-02-04T14:09:01.510Z,7.67
2023-02-04T14:11:28.241Z,7.67
2023-02-04T14:13:54.943Z,8.47
2023-02-04T14:16:21.915Z,8.53
2023-02-04T14:18:48.678Z,8.73
2023-02-04T14:21:15.373Z,7.40
2023-02-04T14:23:42.320Z,7.00
2023-02-04T14:26:09.570Z,8.60
2023-02-04T14:28:36.225Z,8.83
2023-02-04T14:31:02.872Z,9.37
2023-02-04T14:33:29.586Z,8.17
2023-02-04T14:35:56.429Z,7.20
2023-02-04T14:38:23.097Z,6.83
2023-02-04T14:40:49.777Z,7.57
2023-02-04T14:43:16.415Z,6.70
2023-02-04T14:45:43.283Z,6.60
2023-02-04T14:48:10.627Z,9.57
2023-02-04T14:50:37.239Z,8.10
2023-02-04T14:53:04.153Z,7.20
2023-02-04T14:55:30.767Z,6.13
2023-02-04T14:57:57.378Z,7.33
2023-02-04T15:00:24.549Z,8.03
2023-02-04T15:02:51.240Z,8.73
2023-02-04T15:05:18.153Z,6.87
2023-02-04T15:07:45.023Z,8.50
2023-02-04T15:10:14.816Z,8.20
2023-02-04T15:12:41.797Z,8.03
2023-02-04T15:15:08.905Z,8.70
2023-02-04T15:17:35.770Z,8.80
2023-02-04T15:20:04.139Z,8.07
2023-02-04T15:22:30.872Z,7.53
2023-02-04T15:24:57.464Z,7.83
2023-02-04T15:27:24.478Z,7.87
2023-02-04T15:29:51.139Z,7.50
2023-02-04T15:32:17.687Z,8.23
2023-02-04T15:34:44.415Z,8.13
2023-02-04T15:37:11.178Z,7.67
2023-02-04T15:39:38.626Z,6.87
2023-02-04T15:42:05.249Z,6.97
2023-02-04T15:44:32.058Z,7.27
2023-02-04T15:46:58.880Z,6.73
2023-02-04T15:49:25.530Z,7.13
2023-02-04T15:51:52.120Z,8.07
2023-02-04T15:54:18.673Z,7.00
2023-02-04T15:56:45.518Z,8.50
2023-02-04T15:59:12.074Z,8.73
2023-02-04T16:01:38.860Z,9.10
2023-02-04T16:04:05.456Z,9.30
2023-02-04T16:06:32.080Z,10.13
2023-02-04T16:08:59.985Z,10.23
2023-02-04T16:11:26.550Z,10.00
2023-02-04T16:13:53.243Z,9.27
2023-02-04T16:16:20.428Z,9.10
2023-02-04T16:18:47.027Z,9.20
2023-02-04T16:21:13.727Z,9.73
2023-02-04T16:23:41.821Z,9.50
2023-02-04T16:26:09.906Z,9.33
2023-02-04T16:28:36.512Z,13.37
2023-02-04T16:31:03.416Z,11.87
2023-02-04T16:33:30.119Z,12.07
2023-02-04T16:36:08.319Z,15.40
2023-02-04T16:38:36.641Z,11.93
2023-02-04T16:41:03.701Z,11.30
2023-02-04T16:43:30.617Z,12.13
2023-02-04T16:45:57.196Z,10.70
2023-02-04T16:48:24.640Z,7.97
2023-02-04T16:50:51.458Z,7.30
2023-02-04T16:53:18.245Z,7.07
2023-02-04T16:55:46.186Z,6.43
2023-02-04T16:58:13.278Z,6.43
2023-02-04T17:00:42.394Z,6.30
2023-02-04T17:03:10.081Z,6.53
2023-02-04T17:05:37.544Z,6.43
2023-02-04T17:08:05.040Z,6.17
2023-02-04T17:10:50.404Z,6.77
2023-02-04T17:13:17.057Z,6.13
2023-02-04T17:15:43.917Z,5.80
2023-02-04T17:18:10.619Z,5.53
2023-02-04T17:20:37.223Z,6.30
2023-02-04T17:23:06.260Z,6.47
2023-02-04T17:25:33.333Z,6.10
2023-02-04T17:28:00.559Z,6.60
2023-02-04T17:30:27.505Z,6.40
2023-02-04T17:32:54.547Z,5.93
2023-02-04T17:35:21.180Z,6.30
2023-02-04T17:37:47.781Z,7.00
2023-02-04T17:40:14.564Z,6.87
2023-02-04T17:42:41.226Z,6.93
2023-02-04T17:45:10.596Z,6.80
2023-02-04T17:47:38.506Z,6.97
2023-02-04T17:50:07.565Z,7.10
2023-02-04T17:52:34.433Z,6.10
2023-02-04T17:55:02.141Z,7.17
2023-02-04T17:57:28.992Z,8.43
2023-02-04T17:59:55.658Z,8.80
2023-02-04T18:02:31.595Z,7.90
2023-02-04T18:05:01.026Z,7.60
2023-02-04T18:07:27.712Z,8.27
2023-02-04T18:10:10.775Z,7.77
2023-02-04T18:12:37.386Z,7.40
2023-02-04T18:15:28.263Z,5.60
2023-02-04T18:18:15.789Z,6.23
2023-02-04T18:20:42.716Z,7.53
2023-02-04T18:23:18.606Z,7.30
2023-02-04T18:25:46.050Z,6.80
2023-02-04T18:28:18.195Z,6.90
2023-02-04T18:30:45.902Z,7.13
2023-02-04T18:33:22.464Z,6.70
2023-02-04T18:35:51.817Z,6.83
2023-02-04T18:38:25.355Z,6.00
2023-02-04T18:41:17.889Z,6.70
2023-02-04T18:44:16.384Z,7.23
2023-02-04T18:46:47.019Z,7.00
2023-02-04T18:49:19.593Z,6.40
2023-02-04T18:51:46.841Z,6.23
2023-02-04T18:54:33.040Z,6.53
2023-02-04T18:57:28.856Z,6.10
2023-02-04T19:00:23.716Z,6.30
2023-02-04T19:02:56.844Z,6.77
2023-02-04T19:05:35.271Z,6.43
2023-02-04T19:08:04.899Z,6.53
2023-02-04T19:10:34.658Z,6.97
2023-02-04T19:13:25.934Z,8.10
2023-02-04T19:16:16.087Z,7.67
2023-02-04T19:18:43.161Z,7.63
2023-02-04T19:21:27.696Z,6.40
2023-02-04T19:24:21.634Z,7.13
2023-02-04T19:26:59.353Z,6.90
2023-02-04T19:29:28.617Z,6.93
2023-02-04T19:32:00.369Z,6.67
2023-02-04T19:34:29.541Z,6.70
2023-02-04T19:36:56.232Z,6.60
2023-02-04T19:39:40.606Z,6.67
2023-02-04T19:42:36.834Z,7.50
2023-02-04T19:45:23.963Z,6.40
2023-02-04T19:47:53.504Z,6.40
2023-02-04T19:50:23.138Z,6.93
2023-02-04T19:52:52.509Z,6.63
2023-02-04T19:55:47.741Z,6.70
2023-02-04T19:58:23.546Z,6.80
2023-02-04T20:00:59.386Z,7.37
2023-02-04T20:03:36.976Z,7.47
2023-02-04T20:06:09.778Z,7.43
2023-02-04T20:08:46.541Z,7.07
2023-02-04T20:11:22.240Z,6.80
2023-02-04T20:13:49.976Z,7.03
2023-02-04T20:16:30.027Z,6.77
2023-02-04T20:18:56.925Z,6.83
2023-02-04T20:21:23.496Z,7.10
2023-02-04T20:23:50.059Z,7.00
2023-02-04T20:26:16.802Z,7.70
2023-02-04T20:28:43.606Z,8.77
2023-02-04T20:31:22.734Z,8.80
2023-02-04T20:33:52.078Z,9.37
2023-02-04T20:36:29.029Z,9.07
2023-02-04T20:39:24.672Z,8.37
2023-02-04T20:41:51.610Z,9.30
2023-02-04T20:44:18.225Z,8.50
2023-02-04T20:46:44.896Z,8.50
2023-02-04T20:49:25.776Z,9.43
2023-02-04T20:51:59.368Z,8.50
2023-02-04T20:54:28.526Z,8.57
2023-02-04T20:57:00.563Z,8.93
2023-02-04T20:59:31.915Z,8.10
2023-02-04T21:01:59.446Z,8.77
2023-02-04T21:04:39.704Z,8.73
2023-02-04T21:07:13.993Z,8.73
2023-02-04T21:09:40.725Z,4.03
2023-02-04T21:12:07.546Z,9.60
2023-02-04T21:14:34.514Z,9.13
2023-02-04T21:17:01.856Z,9.70
2023-02-04T21:19:28.667Z,9.17
2023-02-04T21:21:57.422Z,9.70
2023-02-04T21:24:25.205Z,10.63
2023-02-04T21:26:52.127Z,9.37
2023-02-04T21:29:18.914Z,10.17
2023-02-04T21:31:46.812Z,13.60
2023-02-04T21:34:13.789Z,11.40
2023-02-04T21:36:40.419Z,10.37
2023-02-04T21:39:07.051Z,11.90
2023-02-04T21:41:33.898Z,10.13
2023-02-04T21:44:00.558Z,10.07
2023-02-04T21:46:27.419Z,9.93
2023-02-04T21:48:54.149Z,9.93
2023-02-04T21:51:20.804Z,10.10
2023-02-04T21:53:47.386Z,10.30
2023-02-04T21:56:14.660Z,9.33
2023-02-04T21:58:41.463Z,9.33
2023-02-04T22:01:08.194Z,9.97
2023-02-04T22:03:35.469Z,9.40
2023-02-04T22:06:02.062Z,10.53
2023-02-04T22:08:28.666Z,9.53
2023-02-04T22:10:55.712Z,9.37
2023-02-04T22:13:40.871Z,9.43
2023-02-04T22:16:07.703Z,8.70
2023-02-04T22:18:34.472Z,10.13
2023-02-04T22:21:01.298Z,9.80
2023-02-04T22:23:28.108Z,10.03
2023-02-04T22:25:54.863Z,9.10
2023-02-04T22:28:21.620Z,10.27
2023-02-04T22:30:48.397Z,9.50
2023-02-04T22:33:15.322Z,10.10
2023-02-04T22:35:42.133Z,10.00
2023-02-04T22:38:09.174Z,9.20
2023-02-04T22:40:35.992Z,10.33
2023-02-04T22:43:04.734Z,9.70
2023-02-04T22:45:32.172Z,10.13
2023-02-04T22:47:58.988Z,9.73
2023-02-04T22:50:25.743Z,9.07
2023-02-04T22:52:52.327Z,9.77
2023-02-04T22:55:18.873Z,12.13
2023-02-04T22:57:45.611Z,10.63
2023-02-04T23:00:13.429Z,10.40
2023-02-04T23:02:40.115Z,10.07
2023-02-04T23:05:07.127Z,9.63
2023-02-04T23:07:34.100Z,9.80
2023-02-04T23:10:00.720Z,9.23
2023-02-04T23:12:27.325Z,11.40
2023-02-04T23:14:54.119Z,10.63
2023-02-04T23:17:20.723Z,10.53
2023-02-04T23:19:47.489Z,11.47
2023-02-04T23:22:14.476Z,10.40
2023-02-04T23:24:41.693Z,10.67
2023-02-04T23:27:11.471Z,10.93
2023-02-04T23:29:39.578Z,11.13
2023-02-04T23:32:06.856Z,10.47
2023-02-04T23:34:33.575Z,10.67
2023-02-04T23:37:00.526Z,11.57
2023-02-04T23:39:27.252Z,11.50
2023-02-04T23:41:55.006Z,11.63
2023-02-04T23:44:21.577Z,12.40
2023-02-04T23:46:48.562Z,12.20
2023-02-04T23:49:15.732Z,12.03
2023-02-04T23:51:42.378Z,11.90
2023-02-04T23:54:09.375Z,10.23
2023-02-04T23:56:36.042Z,11.27
2023-02-04T23:59:02.699Z,11.30
